Time;durP1;ratioP1;P1;durP2;ratioP2;P2;SDS_P1;SDS_P2;PMS_P1;PMS_P2;Temp;Humidity;BMP_temperature;BMP_pressure;BME280_temperature;BME280_humidity;BME280_pressure;Samples;Min_cycle;Max_cycle;Signal;HPM_P1;HPM_P2
2022/12/04 00:01:51;;;;;;;24.75;9.32;;;2.10;99.90;;;;;;20986718;28;20047;-78
2022/12/04 00:11:52;;;;;;;27.27;9.00;;;2.10;99.90;;;;;;20986219;28;20475;-79
2022/12/04 00:21:52;;;;;;;26.42;9.50;;;2.20;99.90;;;;;;20984632;28;20550;-80
2022/12/04 00:31:53;;;;;;;24.70;9.98;;;2.10;99.90;;;;;;20988394;28;20038;-80
2022/12/04 00:41:54;;;;;;;29.73;10.23;;;2.10;99.90;;;;;;21005420;28;20025;-79
2022/12/04 00:51:55;;;;;;;23.50;9.35;;;2.20;99.90;;;;;;20986698;28;20047;-81
2022/12/04 01:01:55;;;;;;;25.98;9.40;;;2.10;99.90;;;;;;21007317;28;20041;-81
2022/12/04 01:11:56;;;;;;;22.20;9.82;;;2.10;99.90;;;;;;21020559;28;20028;-79
2022/12/04 01:21:57;;;;;;;23.67;9.80;;;2.10;99.90;;;;;;21020290;28;20054;-80
2022/12/04 01:31:58;;;;;;;26.25;10.45;;;2.10;99.90;;;;;;21001331;28;20033;-80
2022/12/04 01:41:58;;;;;;;24.45;8.70;;;2.10;99.90;;;;;;21017737;28;20459;-81
2022/12/04 01:52:25;;;;;;;24.67;9.82;;;2.10;99.90;;;;;;20998469;28;20040;-82
2022/12/04 02:02:32;;;;;;;24.13;9.48;;;2.10;99.90;;;;;;20990878;28;20044;-81
2022/12/04 02:12:48;;;;;;;21.52;9.57;;;2.10;99.90;;;;;;21014276;28;20036;-80
2022/12/04 02:23:23;;;;;;;26.42;10.15;;;2.10;99.90;;;;;;21014154;28;20039;-81
2022/12/04 02:33:53;;;;;;;24.67;9.77;;;2.10;99.90;;;;;;20992160;28;20025;-81
2022/12/04 02:44:06;;;;;;;27.55;9.75;;;2.10;99.90;;;;;;20880149;28;20514;-82
2022/12/04 02:54:15;;;;;;;25.08;9.32;;;2.10;99.90;;;;;;21089094;22;20059;-81
2022/12/04 03:04:19;;;;;;;26.83;9.77;;;2.10;99.90;;;;;;21036741;28;20028;-81
2022/12/04 03:14:31;;;;;;;25.33;9.38;;;2.10;99.90;;;;;;21001355;28;20024;-81
2022/12/04 03:24:53;;;;;;;21.48;8.13;;;2.10;99.90;;;;;;20990064;28;20024;-80
2022/12/04 03:35:25;;;;;;;29.05;10.02;;;2.10;99.90;;;;;;20998818;28;20032;-80
2022/12/04 03:45:35;;;;;;;27.17;10.38;;;2.10;99.90;;;;;;21001110;28;20055;-80
2022/12/04 03:56:08;;;;;;;19.77;7.77;;;2.00;99.90;;;;;;20988519;28;20391;-80
2022/12/04 04:06:19;;;;;;;23.52;9.25;;;2.00;99.90;;;;;;20963161;28;20063;-80
2022/12/04 04:26:45;;;;;;;26.15;10.00;;;2.00;99.90;;;;;;20928108;28;20171;-80
2022/12/04 04:37:01;;;;;;;24.38;9.70;;;2.00;99.90;;;;;;20975760;28;20032;-80
2022/12/04 04:47:06;;;;;;;24.42;10.43;;;2.00;99.90;;;;;;21006585;28;20033;-81
2022/12/04 04:57:06;;;;;;;31.60;10.02;;;2.00;99.90;;;;;;20989808;28;20028;-81
2022/12/04 05:07:08;;;;;;;23.80;9.82;;;2.10;99.90;;;;;;20972626;28;20052;-80
2022/12/04 05:17:09;;;;;;;24.42;9.68;;;2.00;99.90;;;;;;21004882;28;20032;-81
2022/12/04 05:27:10;;;;;;;22.98;9.38;;;2.10;99.90;;;;;;20986260;28;20143;-81
2022/12/04 05:37:11;;;;;;;19.35;8.38;;;2.10;99.90;;;;;;20985310;28;20119;-80
2022/12/04 05:47:11;;;;;;;22.88;9.35;;;2.10;99.90;;;;;;21002789;28;20033;-80
2022/12/04 05:57:12;;;;;;;23.67;10.05;;;2.10;99.90;;;;;;20984702;28;20116;-80
2022/12/04 06:07:13;;;;;;;23.48;9.50;;;2.00;99.90;;;;;;20967540;28;20028;-81
2022/12/04 06:17:14;;;;;;;23.88;9.70;;;2.10;99.90;;;;;;20982303;28;20321;-81
2022/12/04 06:27:14;;;;;;;22.58;8.93;;;2.10;99.90;;;;;;20981348;28;20403;-81
2022/12/04 06:37:15;;;;;;;21.10;8.85;;;2.00;99.90;;;;;;20981529;28;20068;-80
2022/12/04 06:47:16;;;;;;;24.52;9.63;;;2.00;99.90;;;;;;20910933;28;20071;-81
2022/12/04 06:57:17;;;;;;;29.02;9.50;;;2.00;99.90;;;;;;20939913;28;20044;-80
2022/12/04 07:07:17;;;;;;;23.40;9.70;;;1.90;99.90;;;;;;20977379;28;20479;-80
2022/12/04 07:17:18;;;;;;;20.60;8.88;;;1.90;99.90;;;;;;20986512;28;20036;-81
2022/12/04 07:27:19;;;;;;;23.08;9.15;;;2.50;99.90;;;;;;20941459;28;20490;-80
2022/12/04 07:37:20;;;;;;;24.00;9.68;;;2.20;99.90;;;;;;20918461;28;20040;-80
2022/12/04 07:47:20;;;;;;;23.70;8.82;;;2.00;99.90;;;;;;20920608;28;20029;-80
2022/12/04 07:57:21;;;;;;;23.83;9.43;;;2.00;99.90;;;;;;20921908;28;20025;-81
2022/12/04 08:07:22;;;;;;;26.88;9.77;;;2.00;99.90;;;;;;20920274;28;20029;-81
2022/12/04 08:17:23;;;;;;;31.10;10.15;;;2.10;99.90;;;;;;20987917;28;20024;-80
2022/12/04 08:27:24;;;;;;;27.55;10.13;;;2.10;99.90;;;;;;21057258;28;20078;-80
2022/12/04 08:37:26;;;;;;;29.75;9.77;;;2.10;99.90;;;;;;21054292;28;20029;-80
2022/12/04 08:47:27;;;;;;;30.88;11.27;;;2.20;99.90;;;;;;21016930;28;20040;-80
2022/12/04 08:57:27;;;;;;;29.95;11.43;;;2.20;99.90;;;;;;21059549;28;20055;-80
2022/12/04 09:07:28;;;;;;;34.70;12.23;;;2.40;99.90;;;;;;21015397;22;20502;-78
2022/12/04 09:17:29;;;;;;;30.70;11.07;;;2.50;99.90;;;;;;20956454;28;20047;-77
2022/12/04 09:27:34;;;;;;;47.67;15.50;;;2.40;99.90;;;;;;20992401;28;20119;-78
2022/12/04 09:37:35;;;;;;;29.40;11.18;;;2.50;99.90;;;;;;20988812;28;20016;-79
2022/12/04 09:47:53;;;;;;;26.27;10.65;;;2.30;99.90;;;;;;20947256;28;20506;-78
2022/12/04 09:57:58;;;;;;;28.83;11.50;;;2.30;99.90;;;;;;20959061;28;20399;-77
2022/12/04 10:08:14;;;;;;;361.65;85.30;;;2.20;99.90;;;;;;20972954;28;20098;-77
2022/12/04 10:18:56;;;;;;;37.75;13.10;;;2.30;99.90;;;;;;21019171;28;20075;-79
2022/12/04 10:29:02;;;;;;;31.43;10.37;;;2.80;99.90;;;;;;20959679;28;20028;-77
2022/12/04 10:39:25;;;;;;;30.35;12.65;;;3.50;99.90;;;;;;20994466;28;20036;-77
2022/12/04 10:49:28;;;;;;;26.58;10.93;;;2.90;99.90;;;;;;20993481;28;20755;-77
2022/12/04 10:59:30;;;;;;;29.23;11.27;;;2.80;99.90;;;;;;20976626;28;20060;-77
2022/12/04 11:09:31;;;;;;;33.92;11.95;;;2.90;99.90;;;;;;20974706;28;20020;-77
2022/12/04 11:19:35;;;;;;;32.78;11.98;;;3.10;99.90;;;;;;20933804;28;20040;-77
2022/12/04 11:29:41;;;;;;;30.17;11.15;;;3.00;99.90;;;;;;20918738;28;20037;-77
2022/12/04 11:39:43;;;;;;;35.17;15.52;;;3.00;99.90;;;;;;20934823;28;20032;-77
2022/12/04 11:49:56;;;;;;;46.95;13.90;;;2.60;99.90;;;;;;20907690;28;20395;-77
2022/12/04 12:00:16;;;;;;;43.28;14.98;;;2.50;99.90;;;;;;20924488;28;20046;-76
2022/12/04 12:10:27;;;;;;;47.80;14.93;;;2.40;99.90;;;;;;20987675;28;20052;-78
2022/12/04 12:20:36;;;;;;;38.20;12.98;;;2.30;99.90;;;;;;20980451;28;20033;-77
2022/12/04 12:31:02;;;;;;;37.78;15.27;;;2.40;99.90;;;;;;20979466;28;20025;-77
2022/12/04 12:41:20;;;;;;;35.17;11.88;;;2.50;99.90;;;;;;21010329;28;20064;-78
2022/12/04 12:51:43;;;;;;;30.35;11.80;;;2.70;99.90;;;;;;21014688;28;20093;-77
2022/12/04 13:02:05;;;;;;;30.08;11.45;;;2.70;99.90;;;;;;20955697;28;1156880;-77
2022/12/04 13:12:13;;;;;;;26.05;10.73;;;2.80;99.90;;;;;;21006309;28;20025;-78
2022/12/04 13:22:36;;;;;;;28.13;9.82;;;2.90;99.90;;;;;;20973189;28;20025;-78
2022/12/04 13:32:56;;;;;;;25.88;10.57;;;2.80;99.90;;;;;;20989197;28;20033;-77
2022/12/04 13:43:24;;;;;;;27.65;11.05;;;2.70;99.90;;;;;;20974202;28;20391;-77
2022/12/04 13:53:36;;;;;;;32.03;11.55;;;2.80;99.90;;;;;;20996783;28;20039;-78
2022/12/04 14:03:57;;;;;;;30.13;10.32;;;2.90;99.90;;;;;;20949058;28;20373;-78
2022/12/04 14:13:59;;;;;;;27.45;10.00;;;3.00;99.90;;;;;;20968838;28;20099;-75
2022/12/04 14:24:00;;;;;;;28.88;11.07;;;3.00;99.90;;;;;;20969046;28;20087;-77
2022/12/04 14:34:41;;;;;;;29.20;11.45;;;2.70;99.90;;;;;;20967016;28;20016;-77
2022/12/04 14:44:50;;;;;;;31.27;12.17;;;2.70;99.90;;;;;;20715158;28;20062;-77
2022/12/04 14:55:12;;;;;;;34.25;15.00;;;2.80;99.90;;;;;;20665239;28;20045;-77
2022/12/04 15:05:23;;;;;;;32.67;12.93;;;2.90;99.90;;;;;;20995300;22;20031;-79
2022/12/04 15:15:27;;;;;;;27.13;11.55;;;3.00;99.90;;;;;;21202518;27;20067;-79
2022/12/04 15:25:36;;;;;;;29.33;12.23;;;2.80;99.90;;;;;;21148678;28;20519;-79
2022/12/04 15:35:45;;;;;;;29.38;11.60;;;2.70;99.90;;;;;;21133345;28;20449;-78
2022/12/04 15:45:46;;;;;;;29.65;12.02;;;2.60;99.90;;;;;;21061943;28;20024;-79
2022/12/04 15:56:01;;;;;;;32.10;11.10;;;2.50;99.90;;;;;;21047330;28;20093;-80
2022/12/04 16:06:19;;;;;;;28.77;11.30;;;2.60;99.90;;;;;;21025689;28;20064;-80
2022/12/04 16:16:21;;;;;;;26.80;11.43;;;2.60;99.90;;;;;;20977799;28;20471;-80
2022/12/04 16:26:22;;;;;;;24.83;11.18;;;2.60;99.90;;;;;;20978693;28;20127;-80
2022/12/04 16:36:23;;;;;;;28.50;12.02;;;2.60;99.90;;;;;;21033069;28;20028;-79
2022/12/04 16:46:25;;;;;;;32.85;12.73;;;2.60;99.90;;;;;;21097135;28;20123;-79
2022/12/04 16:56:26;;;;;;;32.20;12.02;;;2.40;99.90;;;;;;21077809;28;20028;-79
2022/12/04 17:06:27;;;;;;;33.35;12.30;;;2.30;99.90;;;;;;21061811;28;20036;-80
2022/12/04 17:16:28;;;;;;;35.92;13.73;;;2.30;99.90;;;;;;21085168;28;20399;-79
2022/12/04 17:26:29;;;;;;;36.25;13.35;;;2.40;99.90;;;;;;21011979;28;20028;-78
2022/12/04 17:36:30;;;;;;;34.90;15.02;;;2.40;99.90;;;;;;21014037;28;20034;-79
2022/12/04 17:46:30;;;;;;;33.40;12.70;;;2.40;99.90;;;;;;21007774;28;20043;-79
2022/12/04 17:56:32;;;;;;;38.05;13.93;;;2.40;99.90;;;;;;21080045;28;20036;-79
2022/12/04 18:06:38;;;;;;;37.13;13.30;;;2.40;99.90;;;;;;21079900;28;20036;-79
2022/12/04 18:16:51;;;;;;;29.58;13.98;;;2.40;99.90;;;;;;21091955;28;20024;-79
2022/12/04 18:26:52;;;;;;;32.63;13.00;;;2.50;99.90;;;;;;20999610;28;20059;-80
2022/12/04 18:36:53;;;;;;;36.17;13.95;;;2.60;99.90;;;;;;20994094;28;20034;-80
2022/12/04 18:46:54;;;;;;;30.45;12.40;;;2.60;99.90;;;;;;21032018;28;20028;-79
2022/12/04 18:56:54;;;;;;;29.92;12.68;;;2.60;99.90;;;;;;21081575;28;20025;-78
2022/12/04 19:06:55;;;;;;;34.72;14.18;;;2.60;99.90;;;;;;21061864;28;20062;-79
2022/12/04 19:16:56;;;;;;;32.30;12.90;;;2.60;99.90;;;;;;21065933;28;20486;-79
2022/12/04 19:26:57;;;;;;;40.00;17.15;;;2.60;99.90;;;;;;21083762;28;20141;-79
2022/12/04 19:36:58;;;;;;;33.15;14.18;;;2.70;99.90;;;;;;21038308;28;20028;-79
2022/12/04 19:46:59;;;;;;;27.20;10.82;;;2.70;99.90;;;;;;21000409;28;20035;-79
2022/12/04 19:57:00;;;;;;;29.52;11.40;;;2.60;99.90;;;;;;20981358;28;20402;-79
2022/12/04 20:07:01;;;;;;;27.48;9.95;;;2.50;99.90;;;;;;21000006;28;20104;-79
2022/12/04 20:17:02;;;;;;;23.38;9.75;;;2.50;99.90;;;;;;20981164;28;20174;-78
2022/12/04 20:27:03;;;;;;;26.65;10.95;;;2.50;99.90;;;;;;20993937;28;20423;-79
2022/12/04 20:37:04;;;;;;;27.30;12.70;;;2.60;99.90;;;;;;21001323;28;20052;-80
2022/12/04 20:47:04;;;;;;;25.35;10.02;;;2.70;99.90;;;;;;20994554;28;20045;-80
2022/12/04 20:57:05;;;;;;;26.17;11.75;;;2.60;99.90;;;;;;20992134;28;20089;-80
2022/12/04 21:07:06;;;;;;;35.58;12.30;;;2.60;99.90;;;;;;21012309;22;20127;-77
2022/12/04 21:17:10;;;;;;;24.95;10.82;;;2.60;99.90;;;;;;20962040;28;20021;-75
2022/12/04 21:27:11;;;;;;;24.73;10.27;;;2.60;99.90;;;;;;20958093;28;20477;-77
2022/12/04 21:37:12;;;;;;;24.50;8.80;;;2.50;99.90;;;;;;20978164;28;20031;-77
2022/12/04 21:47:13;;;;;;;23.38;9.80;;;2.50;99.90;;;;;;20949673;28;20421;-78
2022/12/04 21:57:13;;;;;;;28.83;12.13;;;2.60;99.90;;;;;;20962156;28;20132;-76
2022/12/04 22:07:15;;;;;;;24.92;10.23;;;2.50;99.90;;;;;;20952369;28;20069;-77
2022/12/04 22:17:15;;;;;;;23.38;9.52;;;2.50;99.90;;;;;;20952377;28;20033;-78
2022/12/04 22:27:16;;;;;;;21.77;9.43;;;2.50;99.90;;;;;;20969171;28;20465;-78
2022/12/04 22:37:17;;;;;;;25.83;9.57;;;2.60;99.90;;;;;;20966237;28;20024;-78
2022/12/04 22:47:18;;;;;;;28.60;10.07;;;2.60;99.90;;;;;;20963789;28;20482;-78
2022/12/04 22:57:18;;;;;;;29.75;10.75;;;2.40;99.90;;;;;;20959826;28;20036;-76
2022/12/04 23:07:19;;;;;;;30.88;11.40;;;2.40;99.90;;;;;;20936042;28;20487;-77
2022/12/04 23:17:21;;;;;;;28.85;10.48;;;2.50;99.90;;;;;;20953240;28;20120;-77
2022/12/04 23:27:22;;;;;;;28.00;10.77;;;2.40;99.90;;;;;;20950774;28;20063;-77
2022/12/04 23:37:23;;;;;;;27.42;10.57;;;2.60;99.90;;;;;;20950120;28;20475;-78
2022/12/04 23:47:24;;;;;;;29.52;10.55;;;2.60;99.90;;;;;;20949136;28;20111;-76
2022/12/04 23:57:28;;;;;;;23.65;9.82;;;2.70;99.90;;;;;;20930696;28;20031;-77
